sensor_id;sensor_type;location;lat;lon;timestamp;P1;durP1;ratioP1;P2;durP2;ratioP2
4078;SDS011;2054;47.858;11.156;2023-02-15T03:46:45;24.55;;;8.95;;
4078;SDS011;2054;47.858;11.156;2023-02-15T03:49:15;17.73;;;8.63;;
4078;SDS011;2054;47.858;11.156;2023-02-15T03:51:45;21.05;;;9.52;;
4078;SDS011;2054;47.858;11.156;2023-02-15T03:54:13;24.70;;;9.45;;
4078;SDS011;2054;47.858;11.156;2023-02-15T03:57:02;31.90;;;9.43;;
4078;SDS011;2054;47.858;11.156;2023-02-15T03:59:43;23.42;;;9.85;;
4078;SDS011;2054;47.858;11.156;2023-02-15T04:02:30;21.02;;;9.70;;
4078;SDS011;2054;47.858;11.156;2023-02-15T04:05:00;15.57;;;8.98;;
4078;SDS011;2054;47.858;11.156;2023-02-15T04:07:28;20.10;;;8.88;;
4078;SDS011;2054;47.858;11.156;2023-02-15T04:09:55;23.42;;;8.60;;
4078;SDS011;2054;47.858;11.156;2023-02-15T04:12:36;28.88;;;8.27;;
4078;SDS011;2054;47.858;11.156;2023-02-15T04:15:04;14.52;;;8.50;;
4078;SDS011;2054;47.858;11.156;2023-02-15T04:17:50;29.17;;;9.32;;
4078;SDS011;2054;47.858;11.156;2023-02-15T04:20:17;28.52;;;9.55;;
4078;SDS011;2054;47.858;11.156;2023-02-15T04:23:05;30.77;;;9.07;;
4078;SDS011;2054;47.858;11.156;2023-02-15T04:25:49;22.35;;;8.27;;
4078;SDS011;2054;47.858;11.156;2023-02-15T04:28:17;24.45;;;9.27;;
4078;SDS011;2054;47.858;11.156;2023-02-15T04:30:44;25.95;;;9.82;;
4078;SDS011;2054;47.858;11.156;2023-02-15T04:33:14;30.75;;;9.15;;
4078;SDS011;2054;47.858;11.156;2023-02-15T04:35:42;19.90;;;9.80;;
4078;SDS011;2054;47.858;11.156;2023-02-15T04:38:11;22.30;;;9.98;;
4078;SDS011;2054;47.858;11.156;2023-02-15T04:40:38;33.20;;;9.60;;
4078;SDS011;2054;47.858;11.156;2023-02-15T04:43:05;25.40;;;10.20;;
4078;SDS011;2054;47.858;11.156;2023-02-15T04:45:32;21.60;;;9.45;;
4078;SDS011;2054;47.858;11.156;2023-02-15T04:47:59;22.20;;;10.05;;
4078;SDS011;2054;47.858;11.156;2023-02-15T04:50:28;19.40;;;9.13;;
4078;SDS011;2054;47.858;11.156;2023-02-15T04:52:55;23.45;;;9.75;;
4078;SDS011;2054;47.858;11.156;2023-02-15T04:55:22;23.58;;;9.10;;
4078;SDS011;2054;47.858;11.156;2023-02-15T04:57:51;21.27;;;9.57;;
4078;SDS011;2054;47.858;11.156;2023-02-15T05:00:19;17.75;;;8.80;;
4078;SDS011;2054;47.858;11.156;2023-02-15T05:02:46;26.25;;;8.30;;
4078;SDS011;2054;47.858;11.156;2023-02-15T05:05:14;17.90;;;8.40;;
4078;SDS011;2054;47.858;11.156;2023-02-15T05:07:42;12.90;;;7.70;;
4078;SDS011;2054;47.858;11.156;2023-02-15T05:10:10;15.40;;;8.30;;
4078;SDS011;2054;47.858;11.156;2023-02-15T05:12:37;14.13;;;7.43;;
4078;SDS011;2054;47.858;11.156;2023-02-15T05:15:04;14.60;;;7.75;;
4078;SDS011;2054;47.858;11.156;2023-02-15T05:17:32;17.95;;;8.32;;
4078;SDS011;2054;47.858;11.156;2023-02-15T05:19:59;12.82;;;7.45;;
4078;SDS011;2054;47.858;11.156;2023-02-15T05:22:27;17.90;;;7.55;;
4078;SDS011;2054;47.858;11.156;2023-02-15T05:24:56;11.27;;;6.82;;
4078;SDS011;2054;47.858;11.156;2023-02-15T05:27:41;13.52;;;6.70;;
4078;SDS011;2054;47.858;11.156;2023-02-15T05:30:25;13.15;;;6.78;;
4078;SDS011;2054;47.858;11.156;2023-02-15T05:32:53;15.20;;;8.13;;
4078;SDS011;2054;47.858;11.156;2023-02-15T05:35:20;15.63;;;6.97;;
4078;SDS011;2054;47.858;11.156;2023-02-15T05:37:48;16.90;;;7.63;;
4078;SDS011;2054;47.858;11.156;2023-02-15T05:40:17;18.40;;;8.38;;
4078;SDS011;2054;47.858;11.156;2023-02-15T05:42:44;16.77;;;7.93;;
4078;SDS011;2054;47.858;11.156;2023-02-15T05:45:11;13.45;;;7.75;;
4078;SDS011;2054;47.858;11.156;2023-02-15T05:47:39;19.60;;;8.75;;
4078;SDS011;2054;47.858;11.156;2023-02-15T05:50:06;16.90;;;8.20;;
4078;SDS011;2054;47.858;11.156;2023-02-15T05:52:34;15.90;;;8.05;;
4078;SDS011;2054;47.858;11.156;2023-02-15T05:55:01;15.82;;;8.13;;
4078;SDS011;2054;47.858;11.156;2023-02-15T05:57:30;23.45;;;7.63;;
4078;SDS011;2054;47.858;11.156;2023-02-15T05:59:58;16.42;;;7.72;;
4078;SDS011;2054;47.858;11.156;2023-02-15T06:02:25;18.75;;;8.82;;
4078;SDS011;2054;47.858;11.156;2023-02-15T06:04:53;18.48;;;8.45;;
4078;SDS011;2054;47.858;11.156;2023-02-15T06:07:20;18.48;;;8.45;;
4078;SDS011;2054;47.858;11.156;2023-02-15T06:09:47;24.95;;;8.68;;
4078;SDS011;2054;47.858;11.156;2023-02-15T06:12:14;33.15;;;8.98;;
4078;SDS011;2054;47.858;11.156;2023-02-15T06:14:43;29.27;;;8.90;;
4078;SDS011;2054;47.858;11.156;2023-02-15T06:17:10;14.88;;;8.00;;
4078;SDS011;2054;47.858;11.156;2023-02-15T06:19:38;29.27;;;8.13;;
4078;SDS011;2054;47.858;11.156;2023-02-15T06:22:05;21.25;;;8.32;;
4078;SDS011;2054;47.858;11.156;2023-02-15T06:24:33;16.30;;;7.20;;
4078;SDS011;2054;47.858;11.156;2023-02-15T06:27:00;13.18;;;7.32;;
4078;SDS011;2054;47.858;11.156;2023-02-15T06:29:27;18.45;;;7.63;;
4078;SDS011;2054;47.858;11.156;2023-02-15T06:31:56;21.73;;;8.40;;
4078;SDS011;2054;47.858;11.156;2023-02-15T06:34:23;21.48;;;8.32;;
4078;SDS011;2054;47.858;11.156;2023-02-15T06:36:50;13.15;;;7.78;;
4078;SDS011;2054;47.858;11.156;2023-02-15T06:39:17;17.73;;;7.97;;
4078;SDS011;2054;47.858;11.156;2023-02-15T06:41:44;17.05;;;8.60;;
4078;SDS011;2054;47.858;11.156;2023-02-15T06:44:12;19.60;;;7.57;;
4078;SDS011;2054;47.858;11.156;2023-02-15T06:46:39;17.25;;;8.70;;
4078;SDS011;2054;47.858;11.156;2023-02-15T06:49:08;16.65;;;9.02;;
4078;SDS011;2054;47.858;11.156;2023-02-15T06:51:35;14.98;;;8.32;;
4078;SDS011;2054;47.858;11.156;2023-02-15T06:54:02;21.77;;;9.13;;
4078;SDS011;2054;47.858;11.156;2023-02-15T06:56:30;17.52;;;9.60;;
4078;SDS011;2054;47.858;11.156;2023-02-15T06:58:57;19.58;;;9.00;;
4078;SDS011;2054;47.858;11.156;2023-02-15T07:01:24;19.02;;;10.10;;
4078;SDS011;2054;47.858;11.156;2023-02-15T07:03:52;26.48;;;9.30;;
4078;SDS011;2054;47.858;11.156;2023-02-15T07:06:20;18.77;;;9.85;;
4078;SDS011;2054;47.858;11.156;2023-02-15T07:08:47;20.15;;;9.02;;
4078;SDS011;2054;47.858;11.156;2023-02-15T07:11:15;24.60;;;9.95;;
4078;SDS011;2054;47.858;11.156;2023-02-15T07:13:56;20.67;;;9.68;;
4078;SDS011;2054;47.858;11.156;2023-02-15T07:16:23;22.10;;;9.05;;
4078;SDS011;2054;47.858;11.156;2023-02-15T07:18:50;26.20;;;9.90;;
4078;SDS011;2054;47.858;11.156;2023-02-15T07:21:18;17.80;;;9.55;;
4078;SDS011;2054;47.858;11.156;2023-02-15T07:23:46;17.30;;;9.05;;
4078;SDS011;2054;47.858;11.156;2023-02-15T07:26:13;15.65;;;8.40;;
4078;SDS011;2054;47.858;11.156;2023-02-15T07:28:41;15.13;;;7.90;;
4078;SDS011;2054;47.858;11.156;2023-02-15T07:31:08;19.48;;;8.95;;
4078;SDS011;2054;47.858;11.156;2023-02-15T07:33:35;14.48;;;7.90;;
4078;SDS011;2054;47.858;11.156;2023-02-15T07:36:03;13.48;;;8.50;;
4078;SDS011;2054;47.858;11.156;2023-02-15T07:38:31;13.85;;;8.30;;
4078;SDS011;2054;47.858;11.156;2023-02-15T07:41:00;13.77;;;7.75;;
4078;SDS011;2054;47.858;11.156;2023-02-15T07:43:28;13.05;;;7.97;;
4078;SDS011;2054;47.858;11.156;2023-02-15T07:45:58;12.90;;;7.63;;
4078;SDS011;2054;47.858;11.156;2023-02-15T07:48:25;14.13;;;8.98;;
4078;SDS011;2054;47.858;11.156;2023-02-15T07:50:52;18.00;;;9.40;;
4078;SDS011;2054;47.858;11.156;2023-02-15T07:53:20;14.38;;;8.23;;
4078;SDS011;2054;47.858;11.156;2023-02-15T07:55:47;14.45;;;8.15;;
4078;SDS011;2054;47.858;11.156;2023-02-15T07:58:15;14.40;;;8.00;;
4078;SDS011;2054;47.858;11.156;2023-02-15T08:00:43;13.88;;;8.80;;
4078;SDS011;2054;47.858;11.156;2023-02-15T08:03:22;15.68;;;9.00;;
4078;SDS011;2054;47.858;11.156;2023-02-15T08:05:54;15.60;;;8.45;;
4078;SDS011;2054;47.858;11.156;2023-02-15T08:08:22;16.88;;;8.95;;
4078;SDS011;2054;47.858;11.156;2023-02-15T08:10:58;19.48;;;10.70;;
4078;SDS011;2054;47.858;11.156;2023-02-15T08:13:45;14.75;;;9.38;;
4078;SDS011;2054;47.858;11.156;2023-02-15T08:16:19;17.88;;;9.70;;
4078;SDS011;2054;47.858;11.156;2023-02-15T08:18:46;16.13;;;9.35;;
4078;SDS011;2054;47.858;11.156;2023-02-15T08:21:14;19.77;;;10.68;;
4078;SDS011;2054;47.858;11.156;2023-02-15T08:23:41;22.60;;;11.00;;
4078;SDS011;2054;47.858;11.156;2023-02-15T08:26:08;18.88;;;10.57;;
4078;SDS011;2054;47.858;11.156;2023-02-15T08:28:35;22.30;;;11.60;;
4078;SDS011;2054;47.858;11.156;2023-02-15T08:31:07;19.38;;;11.43;;
4078;SDS011;2054;47.858;11.156;2023-02-15T08:33:35;17.58;;;10.93;;
4078;SDS011;2054;47.858;11.156;2023-02-15T08:36:02;16.65;;;10.32;;
4078;SDS011;2054;47.858;11.156;2023-02-15T08:38:30;18.35;;;10.18;;
4078;SDS011;2054;47.858;11.156;2023-02-15T08:40:58;17.88;;;11.00;;
4078;SDS011;2054;47.858;11.156;2023-02-15T08:43:25;22.48;;;10.85;;
4078;SDS011;2054;47.858;11.156;2023-02-15T08:45:53;23.90;;;10.63;;
4078;SDS011;2054;47.858;11.156;2023-02-15T08:48:22;19.80;;;10.50;;
4078;SDS011;2054;47.858;11.156;2023-02-15T08:50:49;18.52;;;10.57;;
4078;SDS011;2054;47.858;11.156;2023-02-15T08:53:16;20.42;;;11.13;;
4078;SDS011;2054;47.858;11.156;2023-02-15T08:55:46;16.77;;;9.60;;
4078;SDS011;2054;47.858;11.156;2023-02-15T08:58:16;18.17;;;9.50;;
4078;SDS011;2054;47.858;11.156;2023-02-15T09:00:43;17.80;;;11.10;;
4078;SDS011;2054;47.858;11.156;2023-02-15T09:03:10;18.23;;;10.27;;
4078;SDS011;2054;47.858;11.156;2023-02-15T09:05:39;19.38;;;11.15;;
4078;SDS011;2054;47.858;11.156;2023-02-15T09:08:06;16.63;;;10.50;;
4078;SDS011;2054;47.858;11.156;2023-02-15T09:10:36;18.63;;;10.48;;
4078;SDS011;2054;47.858;11.156;2023-02-15T09:13:03;19.48;;;10.50;;
4078;SDS011;2054;47.858;11.156;2023-02-15T09:15:30;18.45;;;9.55;;
4078;SDS011;2054;47.858;11.156;2023-02-15T09:17:58;16.17;;;9.98;;
4078;SDS011;2054;47.858;11.156;2023-02-15T09:20:29;18.98;;;9.25;;
4078;SDS011;2054;47.858;11.156;2023-02-15T09:22:58;17.40;;;9.52;;
4078;SDS011;2054;47.858;11.156;2023-02-15T09:25:26;16.17;;;9.48;;
4078;SDS011;2054;47.858;11.156;2023-02-15T09:27:53;16.98;;;10.10;;
4078;SDS011;2054;47.858;11.156;2023-02-15T09:30:20;21.85;;;10.82;;
4078;SDS011;2054;47.858;11.156;2023-02-15T09:32:48;18.95;;;10.40;;
4078;SDS011;2054;47.858;11.156;2023-02-15T09:35:15;19.40;;;11.57;;
4078;SDS011;2054;47.858;11.156;2023-02-15T09:37:42;19.15;;;10.50;;
4078;SDS011;2054;47.858;11.156;2023-02-15T09:40:12;16.65;;;9.43;;
4078;SDS011;2054;47.858;11.156;2023-02-15T09:42:44;14.50;;;8.43;;
4078;SDS011;2054;47.858;11.156;2023-02-15T09:45:21;15.18;;;9.13;;
4078;SDS011;2054;47.858;11.156;2023-02-15T09:50:41;18.42;;;10.88;;
4078;SDS011;2054;47.858;11.156;2023-02-15T09:53:19;22.17;;;11.80;;
4078;SDS011;2054;47.858;11.156;2023-02-15T09:55:53;19.20;;;11.45;;
4078;SDS011;2054;47.858;11.156;2023-02-15T09:58:24;17.63;;;12.10;;
4078;SDS011;2054;47.858;11.156;2023-02-15T10:00:58;19.80;;;11.23;;
4078;SDS011;2054;47.858;11.156;2023-02-15T10:03:37;18.98;;;11.25;;
4078;SDS011;2054;47.858;11.156;2023-02-15T10:06:19;18.75;;;11.38;;
4078;SDS011;2054;47.858;11.156;2023-02-15T10:08:57;18.77;;;10.77;;
4078;SDS011;2054;47.858;11.156;2023-02-15T10:11:32;19.67;;;10.48;;
4078;SDS011;2054;47.858;11.156;2023-02-15T10:14:10;17.55;;;10.82;;
4078;SDS011;2054;47.858;11.156;2023-02-15T10:16:41;19.65;;;10.90;;
4078;SDS011;2054;47.858;11.156;2023-02-15T10:19:11;18.80;;;10.35;;
4078;SDS011;2054;47.858;11.156;2023-02-15T10:21:48;18.60;;;10.90;;
4078;SDS011;2054;47.858;11.156;2023-02-15T10:24:29;16.60;;;10.07;;
4078;SDS011;2054;47.858;11.156;2023-02-15T10:27:06;16.58;;;9.65;;
4078;SDS011;2054;47.858;11.156;2023-02-15T10:29:37;16.85;;;10.07;;
4078;SDS011;2054;47.858;11.156;2023-02-15T10:32:06;16.73;;;10.13;;
4078;SDS011;2054;47.858;11.156;2023-02-15T10:34:37;13.25;;;9.30;;
4078;SDS011;2054;47.858;11.156;2023-02-15T10:37:10;14.55;;;9.32;;
4078;SDS011;2054;47.858;11.156;2023-02-15T10:39:44;16.05;;;9.55;;
4078;SDS011;2054;47.858;11.156;2023-02-15T10:42:17;17.35;;;8.93;;
4078;SDS011;2054;47.858;11.156;2023-02-15T10:44:55;16.10;;;10.95;;
4078;SDS011;2054;47.858;11.156;2023-02-15T10:47:31;14.13;;;9.60;;
4078;SDS011;2054;47.858;11.156;2023-02-15T10:50:06;13.60;;;9.95;;
4078;SDS011;2054;47.858;11.156;2023-02-15T10:52:40;14.15;;;8.70;;
4078;SDS011;2054;47.858;11.156;2023-02-15T10:55:11;16.48;;;10.35;;
4078;SDS011;2054;47.858;11.156;2023-02-15T10:57:45;16.63;;;9.48;;
4078;SDS011;2054;47.858;11.156;2023-02-15T11:00:16;14.48;;;9.90;;
4078;SDS011;2054;47.858;11.156;2023-02-15T11:02:49;15.20;;;8.82;;
4078;SDS011;2054;47.858;11.156;2023-02-15T11:05:25;12.32;;;7.97;;
4078;SDS011;2054;47.858;11.156;2023-02-15T11:07:54;11.57;;;8.13;;
4078;SDS011;2054;47.858;11.156;2023-02-15T11:10:25;12.18;;;8.27;;
4078;SDS011;2054;47.858;11.156;2023-02-15T11:12:56;12.60;;;8.23;;
4078;SDS011;2054;47.858;11.156;2023-02-15T11:15:25;10.80;;;7.47;;
4078;SDS011;2054;47.858;11.156;2023-02-15T11:17:55;11.68;;;7.82;;
4078;SDS011;2054;47.858;11.156;2023-02-15T11:20:25;10.55;;;7.35;;
4078;SDS011;2054;47.858;11.156;2023-02-15T11:22:54;11.77;;;7.50;;
4078;SDS011;2054;47.858;11.156;2023-02-15T11:25:23;10.40;;;6.97;;
4078;SDS011;2054;47.858;11.156;2023-02-15T11:27:50;10.43;;;6.85;;
4078;SDS011;2054;47.858;11.156;2023-02-15T11:30:21;10.07;;;6.65;;
4078;SDS011;2054;47.858;11.156;2023-02-15T11:32:49;10.75;;;7.15;;
4078;SDS011;2054;47.858;11.156;2023-02-15T11:35:19;11.18;;;6.80;;
4078;SDS011;2054;47.858;11.156;2023-02-15T11:37:48;9.15;;;6.28;;
4078;SDS011;2054;47.858;11.156;2023-02-15T11:40:19;10.48;;;6.35;;
4078;SDS011;2054;47.858;11.156;2023-02-15T11:42:47;9.15;;;5.88;;
4078;SDS011;2054;47.858;11.156;2023-02-15T11:45:19;8.95;;;5.50;;
4078;SDS011;2054;47.858;11.156;2023-02-15T11:47:49;8.88;;;5.82;;
4078;SDS011;2054;47.858;11.156;2023-02-15T11:50:19;9.20;;;6.20;;
4078;SDS011;2054;47.858;11.156;2023-02-15T11:52:48;10.93;;;5.95;;
4078;SDS011;2054;47.858;11.156;2023-02-15T11:55:18;7.45;;;5.50;;
4078;SDS011;2054;47.858;11.156;2023-02-15T11:57:46;8.73;;;5.57;;
4078;SDS011;2054;47.858;11.156;2023-02-15T12:00:20;6.70;;;5.13;;
4078;SDS011;2054;47.858;11.156;2023-02-15T12:02:52;7.88;;;5.13;;
4078;SDS011;2054;47.858;11.156;2023-02-15T12:05:21;8.32;;;4.93;;
4078;SDS011;2054;47.858;11.156;2023-02-15T12:07:50;7.28;;;5.40;;
4078;SDS011;2054;47.858;11.156;2023-02-15T12:10:20;6.63;;;4.90;;
4078;SDS011;2054;47.858;11.156;2023-02-15T12:12:49;6.00;;;4.80;;
4078;SDS011;2054;47.858;11.156;2023-02-15T12:15:35;5.53;;;4.43;;
4078;SDS011;2054;47.858;11.156;2023-02-15T12:18:04;6.70;;;4.57;;
4078;SDS011;2054;47.858;11.156;2023-02-15T12:20:32;7.22;;;5.15;;
4078;SDS011;2054;47.858;11.156;2023-02-15T12:23:00;7.40;;;5.05;;
4078;SDS011;2054;47.858;11.156;2023-02-15T12:25:30;6.80;;;4.68;;
4078;SDS011;2054;47.858;11.156;2023-02-15T12:28:00;8.50;;;5.18;;
4078;SDS011;2054;47.858;11.156;2023-02-15T12:30:29;8.10;;;4.75;;
4078;SDS011;2054;47.858;11.156;2023-02-15T12:33:00;7.60;;;5.28;;
4078;SDS011;2054;47.858;11.156;2023-02-15T12:35:33;7.65;;;5.20;;
4078;SDS011;2054;47.858;11.156;2023-02-15T12:38:20;9.15;;;5.65;;
4078;SDS011;2054;47.858;11.156;2023-02-15T12:40:56;7.07;;;5.30;;
4078;SDS011;2054;47.858;11.156;2023-02-15T12:43:27;6.78;;;4.82;;
4078;SDS011;2054;47.858;11.156;2023-02-15T12:45:55;7.18;;;5.00;;
4078;SDS011;2054;47.858;11.156;2023-02-15T12:48:39;7.25;;;5.07;;
4078;SDS011;2054;47.858;11.156;2023-02-15T12:51:09;6.47;;;4.63;;
4078;SDS011;2054;47.858;11.156;2023-02-15T12:53:40;6.55;;;4.55;;
4078;SDS011;2054;47.858;11.156;2023-02-15T12:56:09;10.70;;;4.68;;
4078;SDS011;2054;47.858;11.156;2023-02-15T12:58:37;8.52;;;5.00;;
4078;SDS011;2054;47.858;11.156;2023-02-15T13:01:12;6.60;;;4.78;;
4078;SDS011;2054;47.858;11.156;2023-02-15T13:03:51;15.60;;;5.80;;
4078;SDS011;2054;47.858;11.156;2023-02-15T13:06:22;6.05;;;4.15;;
4078;SDS011;2054;47.858;11.156;2023-02-15T13:08:50;5.63;;;4.32;;
4078;SDS011;2054;47.858;11.156;2023-02-15T13:11:19;6.38;;;3.80;;
4078;SDS011;2054;47.858;11.156;2023-02-15T13:13:50;6.13;;;4.13;;
4078;SDS011;2054;47.858;11.156;2023-02-15T13:16:20;7.28;;;4.40;;
4078;SDS011;2054;47.858;11.156;2023-02-15T13:18:48;6.15;;;4.55;;
4078;SDS011;2054;47.858;11.156;2023-02-15T13:21:18;6.72;;;4.55;;
4078;SDS011;2054;47.858;11.156;2023-02-15T13:23:50;7.30;;;4.38;;
4078;SDS011;2054;47.858;11.156;2023-02-15T13:26:18;7.20;;;4.60;;
4078;SDS011;2054;47.858;11.156;2023-02-15T13:28:47;8.48;;;5.20;;
4078;SDS011;2054;47.858;11.156;2023-02-15T13:31:17;7.78;;;5.18;;
4078;SDS011;2054;47.858;11.156;2023-02-15T13:33:46;8.98;;;5.55;;
4078;SDS011;2054;47.858;11.156;2023-02-15T13:36:16;7.95;;;5.18;;
4078;SDS011;2054;47.858;11.156;2023-02-15T13:38:52;10.70;;;5.50;;
4078;SDS011;2054;47.858;11.156;2023-02-15T13:41:23;10.77;;;6.55;;
4078;SDS011;2054;47.858;11.156;2023-02-15T13:43:55;8.35;;;5.30;;
4078;SDS011;2054;47.858;11.156;2023-02-15T13:46:31;9.18;;;5.85;;
4078;SDS011;2054;47.858;11.156;2023-02-15T13:49:05;9.05;;;5.68;;
4078;SDS011;2054;47.858;11.156;2023-02-15T13:51:37;9.57;;;5.68;;
4078;SDS011;2054;47.858;11.156;2023-02-15T13:54:21;11.43;;;5.78;;
4078;SDS011;2054;47.858;11.156;2023-02-15T13:56:54;8.07;;;5.00;;
4078;SDS011;2054;47.858;11.156;2023-02-15T14:02:24;9.88;;;5.65;;
4078;SDS011;2054;47.858;11.156;2023-02-15T14:05:00;10.18;;;5.30;;
4078;SDS011;2054;47.858;11.156;2023-02-15T14:07:34;7.68;;;4.88;;
4078;SDS011;2054;47.858;11.156;2023-02-15T14:10:21;7.53;;;4.55;;
4078;SDS011;2054;47.858;11.156;2023-02-15T14:12:56;9.10;;;4.53;;
4078;SDS011;2054;47.858;11.156;2023-02-15T14:15:31;9.45;;;4.90;;
4078;SDS011;2054;47.858;11.156;2023-02-15T14:20:45;8.45;;;5.22;;
4078;SDS011;2054;47.858;11.156;2023-02-15T14:23:17;8.88;;;5.28;;
4078;SDS011;2054;47.858;11.156;2023-02-15T14:25:55;9.73;;;4.97;;
4078;SDS011;2054;47.858;11.156;2023-02-15T14:28:26;10.27;;;4.63;;
4078;SDS011;2054;47.858;11.156;2023-02-15T14:30:55;8.05;;;4.93;;
4078;SDS011;2054;47.858;11.156;2023-02-15T14:33:31;9.65;;;5.30;;
4078;SDS011;2054;47.858;11.156;2023-02-15T14:35:59;9.60;;;5.57;;
4078;SDS011;2054;47.858;11.156;2023-02-15T14:38:36;9.30;;;5.78;;
4078;SDS011;2054;47.858;11.156;2023-02-15T14:41:07;9.75;;;5.70;;
4078;SDS011;2054;47.858;11.156;2023-02-15T14:43:42;11.48;;;6.88;;
4078;SDS011;2054;47.858;11.156;2023-02-15T14:46:16;12.40;;;6.72;;
4078;SDS011;2054;47.858;11.156;2023-02-15T14:48:46;10.13;;;6.35;;
4078;SDS011;2054;47.858;11.156;2023-02-15T14:54:00;9.93;;;6.45;;
4078;SDS011;2054;47.858;11.156;2023-02-15T14:56:29;10.00;;;6.22;;
4078;SDS011;2054;47.858;11.156;2023-02-15T14:58:58;10.93;;;6.40;;
4078;SDS011;2054;47.858;11.156;2023-02-15T15:01:26;10.93;;;6.25;;
4078;SDS011;2054;47.858;11.156;2023-02-15T15:03:55;11.85;;;6.55;;
4078;SDS011;2054;47.858;11.156;2023-02-15T15:06:24;11.25;;;6.47;;
4078;SDS011;2054;47.858;11.156;2023-02-15T15:08:53;13.48;;;6.68;;
4078;SDS011;2054;47.858;11.156;2023-02-15T15:11:45;14.15;;;6.57;;
4078;SDS011;2054;47.858;11.156;2023-02-15T15:16:59;10.55;;;6.50;;
4078;SDS011;2054;47.858;11.156;2023-02-15T15:22:16;11.60;;;7.18;;
4078;SDS011;2054;47.858;11.156;2023-02-15T15:24:51;12.73;;;7.15;;
4078;SDS011;2054;47.858;11.156;2023-02-15T15:32:50;12.50;;;6.15;;
4078;SDS011;2054;47.858;11.156;2023-02-15T15:35:22;10.98;;;6.32;;
4078;SDS011;2054;47.858;11.156;2023-02-15T15:38:07;10.20;;;6.70;;
4078;SDS011;2054;47.858;11.156;2023-02-15T15:49:07;9.82;;;6.68;;
4078;SDS011;2054;47.858;11.156;2023-02-15T15:51:39;13.07;;;7.00;;
4078;SDS011;2054;47.858;11.156;2023-02-15T15:54:11;12.73;;;6.55;;
4078;SDS011;2054;47.858;11.156;2023-02-15T15:56:39;10.20;;;6.40;;
4078;SDS011;2054;47.858;11.156;2023-02-15T15:59:12;8.90;;;5.97;;
4078;SDS011;2054;47.858;11.156;2023-02-15T16:01:43;10.38;;;6.60;;
4078;SDS011;2054;47.858;11.156;2023-02-15T16:04:13;13.00;;;7.80;;
4078;SDS011;2054;47.858;11.156;2023-02-15T16:06:41;10.75;;;6.90;;
4078;SDS011;2054;47.858;11.156;2023-02-15T16:09:15;13.45;;;7.35;;
4078;SDS011;2054;47.858;11.156;2023-02-15T16:11:43;11.10;;;7.25;;
4078;SDS011;2054;47.858;11.156;2023-02-15T16:14:13;11.48;;;7.60;;
4078;SDS011;2054;47.858;11.156;2023-02-15T16:16:45;11.80;;;8.07;;
4078;SDS011;2054;47.858;11.156;2023-02-15T16:19:18;14.60;;;9.75;;
4078;SDS011;2054;47.858;11.156;2023-02-15T16:21:46;14.55;;;8.65;;
4078;SDS011;2054;47.858;11.156;2023-02-15T16:27:22;12.85;;;8.93;;
4078;SDS011;2054;47.858;11.156;2023-02-15T16:29:52;16.02;;;10.55;;
4078;SDS011;2054;47.858;11.156;2023-02-15T16:32:20;16.92;;;10.25;;
4078;SDS011;2054;47.858;11.156;2023-02-15T16:34:55;18.35;;;10.15;;
4078;SDS011;2054;47.858;11.156;2023-02-15T16:37:23;15.02;;;9.65;;
4078;SDS011;2054;47.858;11.156;2023-02-15T16:39:53;18.55;;;10.60;;
4078;SDS011;2054;47.858;11.156;2023-02-15T16:42:21;14.52;;;10.45;;
4078;SDS011;2054;47.858;11.156;2023-02-15T16:44:50;17.65;;;10.70;;
4078;SDS011;2054;47.858;11.156;2023-02-15T16:47:19;18.15;;;10.75;;
4078;SDS011;2054;47.858;11.156;2023-02-15T16:49:50;22.35;;;12.75;;
4078;SDS011;2054;47.858;11.156;2023-02-15T16:52:21;23.73;;;12.05;;
4078;SDS011;2054;47.858;11.156;2023-02-15T16:54:53;21.35;;;13.23;;
4078;SDS011;2054;47.858;11.156;2023-02-15T16:57:21;21.55;;;14.30;;
4078;SDS011;2054;47.858;11.156;2023-02-15T16:59:50;25.30;;;15.32;;
4078;SDS011;2054;47.858;11.156;2023-02-15T17:02:19;35.40;;;18.77;;
4078;SDS011;2054;47.858;11.156;2023-02-15T17:04:59;36.45;;;19.25;;
4078;SDS011;2054;47.858;11.156;2023-02-15T17:07:30;33.40;;;18.25;;
4078;SDS011;2054;47.858;11.156;2023-02-15T17:09:58;36.47;;;19.13;;
4078;SDS011;2054;47.858;11.156;2023-02-15T17:12:45;36.17;;;18.88;;
4078;SDS011;2054;47.858;11.156;2023-02-15T17:15:26;25.90;;;13.80;;
4078;SDS011;2054;47.858;11.156;2023-02-15T17:17:56;24.65;;;13.52;;
4078;SDS011;2054;47.858;11.156;2023-02-15T17:20:24;26.13;;;14.82;;
4078;SDS011;2054;47.858;11.156;2023-02-15T17:22:52;28.30;;;14.98;;
4078;SDS011;2054;47.858;11.156;2023-02-15T17:25:21;25.27;;;14.98;;
4078;SDS011;2054;47.858;11.156;2023-02-15T17:27:50;28.40;;;15.75;;
4078;SDS011;2054;47.858;11.156;2023-02-15T17:30:24;29.40;;;15.35;;
4078;SDS011;2054;47.858;11.156;2023-02-15T17:32:54;28.40;;;15.35;;
4078;SDS011;2054;47.858;11.156;2023-02-15T17:35:23;36.25;;;17.85;;
4078;SDS011;2054;47.858;11.156;2023-02-15T17:38:02;29.88;;;16.35;;
4078;SDS011;2054;47.858;11.156;2023-02-15T17:40:29;27.17;;;15.52;;
4078;SDS011;2054;47.858;11.156;2023-02-15T17:42:57;26.52;;;15.77;;
4078;SDS011;2054;47.858;11.156;2023-02-15T17:45:26;26.02;;;16.58;;
4078;SDS011;2054;47.858;11.156;2023-02-15T17:47:57;30.60;;;17.00;;
4078;SDS011;2054;47.858;11.156;2023-02-15T17:50:26;25.52;;;15.38;;
4078;SDS011;2054;47.858;11.156;2023-02-15T17:52:55;26.63;;;13.50;;
4078;SDS011;2054;47.858;11.156;2023-02-15T17:55:25;21.30;;;11.38;;
4078;SDS011;2054;47.858;11.156;2023-02-15T17:58:01;17.77;;;10.85;;
4078;SDS011;2054;47.858;11.156;2023-02-15T18:00:29;20.75;;;10.07;;
4078;SDS011;2054;47.858;11.156;2023-02-15T18:03:14;21.00;;;9.00;;
4078;SDS011;2054;47.858;11.156;2023-02-15T18:05:59;16.25;;;8.82;;
4078;SDS011;2054;47.858;11.156;2023-02-15T18:08:44;16.95;;;9.68;;
4078;SDS011;2054;47.858;11.156;2023-02-15T18:11:30;20.85;;;10.98;;
4078;SDS011;2054;47.858;11.156;2023-02-15T18:14:04;23.83;;;11.18;;
4078;SDS011;2054;47.858;11.156;2023-02-15T18:16:32;25.73;;;12.05;;
4078;SDS011;2054;47.858;11.156;2023-02-15T18:19:00;24.65;;;12.27;;
4078;SDS011;2054;47.858;11.156;2023-02-15T18:21:29;21.00;;;11.80;;
4078;SDS011;2054;47.858;11.156;2023-02-15T18:23:56;25.38;;;11.95;;
4078;SDS011;2054;47.858;11.156;2023-02-15T18:26:24;24.42;;;11.60;;
4078;SDS011;2054;47.858;11.156;2023-02-15T18:28:54;25.30;;;12.52;;
4078;SDS011;2054;47.858;11.156;2023-02-15T18:31:21;25.27;;;12.90;;
4078;SDS011;2054;47.858;11.156;2023-02-15T18:33:49;24.17;;;12.00;;
4078;SDS011;2054;47.858;11.156;2023-02-15T18:36:20;21.35;;;11.45;;
4078;SDS011;2054;47.858;11.156;2023-02-15T18:38:49;23.98;;;11.20;;
4078;SDS011;2054;47.858;11.156;2023-02-15T18:41:18;22.58;;;11.73;;
4078;SDS011;2054;47.858;11.156;2023-02-15T18:43:45;21.65;;;11.25;;
4078;SDS011;2054;47.858;11.156;2023-02-15T18:46:15;18.67;;;11.13;;
4078;SDS011;2054;47.858;11.156;2023-02-15T18:48:43;22.38;;;11.52;;
4078;SDS011;2054;47.858;11.156;2023-02-15T18:51:13;19.23;;;9.85;;
4078;SDS011;2054;47.858;11.156;2023-02-15T18:53:42;19.27;;;10.65;;
4078;SDS011;2054;47.858;11.156;2023-02-15T18:56:11;17.70;;;9.52;;
4078;SDS011;2054;47.858;11.156;2023-02-15T18:58:39;19.13;;;8.60;;
4078;SDS011;2054;47.858;11.156;2023-02-15T19:01:10;19.25;;;8.88;;
4078;SDS011;2054;47.858;11.156;2023-02-15T19:03:42;15.70;;;8.95;;
4078;SDS011;2054;47.858;11.156;2023-02-15T19:06:10;14.10;;;7.88;;
4078;SDS011;2054;47.858;11.156;2023-02-15T19:08:37;20.05;;;9.57;;
4078;SDS011;2054;47.858;11.156;2023-02-15T19:11:09;22.75;;;10.07;;
4078;SDS011;2054;47.858;11.156;2023-02-15T19:13:36;23.40;;;10.85;;
4078;SDS011;2054;47.858;11.156;2023-02-15T19:16:04;20.30;;;9.55;;
4078;SDS011;2054;47.858;11.156;2023-02-15T19:18:32;25.88;;;11.25;;
4078;SDS011;2054;47.858;11.156;2023-02-15T19:21:01;17.70;;;10.10;;
4078;SDS011;2054;47.858;11.156;2023-02-15T19:23:29;19.48;;;10.48;;
4078;SDS011;2054;47.858;11.156;2023-02-15T19:25:57;20.92;;;12.18;;